sensor_id;sensor_type;location;lat;lon;timestamp;pressure;altitude;pressure_sealevel;temperature;humidity
61710;BME280;47633;51.494;5.386;2022-08-19T00:02:08;101279.59;;;24.90;53.58
61710;BME280;47633;51.494;5.386;2022-08-19T00:04:35;101282.13;;;24.92;53.42
61710;BME280;47633;51.494;5.386;2022-08-19T00:07:02;101278.78;;;24.90;53.37
61710;BME280;47633;51.494;5.386;2022-08-19T00:09:28;101283.94;;;24.91;53.67
61710;BME280;47633;51.494;5.386;2022-08-19T00:11:55;101279.59;;;24.90;53.75
61710;BME280;47633;51.494;5.386;2022-08-19T00:14:22;101277.41;;;24.86;53.63
61710;BME280;47633;51.494;5.386;2022-08-19T00:16:49;101283.25;;;24.89;53.61
61710;BME280;47633;51.494;5.386;2022-08-19T00:19:16;101279.09;;;24.87;53.29
61710;BME280;47633;51.494;5.386;2022-08-19T00:21:42;101267.88;;;24.83;53.57
61710;BME280;47633;51.494;5.386;2022-08-19T00:24:09;101280.91;;;24.86;53.56
61710;BME280;47633;51.494;5.386;2022-08-19T00:26:35;101277.56;;;24.84;53.41
61710;BME280;47633;51.494;5.386;2022-08-19T00:29:01;101268.22;;;24.80;53.65
61710;BME280;47633;51.494;5.386;2022-08-19T00:31:27;101271.72;;;24.80;53.30
61710;BME280;47633;51.494;5.386;2022-08-19T00:33:53;101275.22;;;24.81;53.38
61710;BME280;47633;51.494;5.386;2022-08-19T00:36:18;101286.72;;;24.81;53.37
61710;BME280;47633;51.494;5.386;2022-08-19T00:38:44;101287.56;;;24.82;53.24
61710;BME280;47633;51.494;5.386;2022-08-19T00:41:12;101288.53;;;24.81;53.57
61710;BME280;47633;51.494;5.386;2022-08-19T00:43:39;101290.53;;;24.79;53.52
61710;BME280;47633;51.494;5.386;2022-08-19T00:46:05;101281.88;;;24.77;53.28
61710;BME280;47633;51.494;5.386;2022-08-19T00:48:32;101289.53;;;24.80;53.33
61710;BME280;47633;51.494;5.386;2022-08-19T00:50:59;101283.38;;;24.79;53.39
61710;BME280;47633;51.494;5.386;2022-08-19T00:53:27;101287.06;;;24.78;53.14
61710;BME280;47633;51.494;5.386;2022-08-19T00:55:56;101285.69;;;24.74;52.80
61710;BME280;47633;51.494;5.386;2022-08-19T00:58:27;101280.34;;;24.74;52.96
61710;BME280;47633;51.494;5.386;2022-08-19T01:00:53;101291.84;;;24.75;53.10
61710;BME280;47633;51.494;5.386;2022-08-19T01:03:20;101286.66;;;24.73;52.84
61710;BME280;47633;51.494;5.386;2022-08-19T01:05:47;101280.81;;;24.70;52.86
61710;BME280;47633;51.494;5.386;2022-08-19T01:08:14;101277.50;;;24.68;52.88
61710;BME280;47633;51.494;5.386;2022-08-19T01:10:44;101283.19;;;24.73;52.99
61710;BME280;47633;51.494;5.386;2022-08-19T01:13:11;101285.84;;;24.73;52.70
61710;BME280;47633;51.494;5.386;2022-08-19T01:15:44;101294.00;;;24.71;52.85
61710;BME280;47633;51.494;5.386;2022-08-19T01:18:13;101281.28;;;24.65;52.84
61710;BME280;47633;51.494;5.386;2022-08-19T01:20:41;101280.00;;;24.69;52.69
61710;BME280;47633;51.494;5.386;2022-08-19T01:23:07;101259.22;;;24.55;52.62
61710;BME280;47633;51.494;5.386;2022-08-19T01:25:42;101276.13;;;24.63;52.54
61710;BME280;47633;51.494;5.386;2022-08-19T01:28:16;101279.28;;;24.67;53.07
61710;BME280;47633;51.494;5.386;2022-08-19T01:30:42;101276.78;;;24.66;52.68
61710;BME280;47633;51.494;5.386;2022-08-19T01:33:08;101278.13;;;24.61;52.52
61710;BME280;47633;51.494;5.386;2022-08-19T01:35:34;101282.97;;;24.66;52.59
61710;BME280;47633;51.494;5.386;2022-08-19T01:38:05;101283.97;;;24.65;52.58
61710;BME280;47633;51.494;5.386;2022-08-19T01:40:34;101284.13;;;24.63;52.99
61710;BME280;47633;51.494;5.386;2022-08-19T01:43:01;101280.63;;;24.63;52.60
61710;BME280;47633;51.494;5.386;2022-08-19T01:45:29;101277.97;;;24.63;52.67
61710;BME280;47633;51.494;5.386;2022-08-19T01:47:56;101268.13;;;24.63;52.60
61710;BME280;47633;51.494;5.386;2022-08-19T01:50:21;101270.28;;;24.60;52.78
61710;BME280;47633;51.494;5.386;2022-08-19T01:52:47;101265.94;;;24.59;53.07
61710;BME280;47633;51.494;5.386;2022-08-19T01:55:15;101278.94;;;24.62;52.82
61710;BME280;47633;51.494;5.386;2022-08-19T01:57:43;101276.28;;;24.62;52.55
61710;BME280;47633;51.494;5.386;2022-08-19T02:00:13;101280.78;;;24.61;52.68
61710;BME280;47633;51.494;5.386;2022-08-19T02:02:40;101275.09;;;24.56;52.98
61710;BME280;47633;51.494;5.386;2022-08-19T02:05:06;101280.78;;;24.61;52.91
61710;BME280;47633;51.494;5.386;2022-08-19T02:07:32;101279.41;;;24.57;52.84
61710;BME280;47633;51.494;5.386;2022-08-19T02:10:03;101285.44;;;24.59;52.46
61710;BME280;47633;51.494;5.386;2022-08-19T02:12:29;101290.78;;;24.59;52.91
61710;BME280;47633;51.494;5.386;2022-08-19T02:14:54;101297.09;;;24.58;52.46
61710;BME280;47633;51.494;5.386;2022-08-19T02:17:19;101287.69;;;24.54;52.70
61710;BME280;47633;51.494;5.386;2022-08-19T02:19:45;101279.78;;;24.44;52.78
61710;BME280;47633;51.494;5.386;2022-08-19T02:22:10;101300.72;;;24.57;52.76
61710;BME280;47633;51.494;5.386;2022-08-19T02:24:36;101303.38;;;24.57;52.58
61710;BME280;47633;51.494;5.386;2022-08-19T02:27:01;101298.50;;;24.53;52.32
61710;BME280;47633;51.494;5.386;2022-08-19T02:29:27;101297.66;;;24.52;52.71
61710;BME280;47633;51.494;5.386;2022-08-19T02:31:52;101296.63;;;24.45;52.57
61710;BME280;47633;51.494;5.386;2022-08-19T02:34:17;101303.00;;;24.52;52.53
61710;BME280;47633;51.494;5.386;2022-08-19T02:36:43;101301.31;;;24.51;52.21
61710;BME280;47633;51.494;5.386;2022-08-19T02:39:09;101303.16;;;24.51;52.29
61710;BME280;47633;51.494;5.386;2022-08-19T02:41:34;101299.66;;;24.50;52.16
61710;BME280;47633;51.494;5.386;2022-08-19T02:44:01;101291.81;;;24.49;52.13
61710;BME280;47633;51.494;5.386;2022-08-19T02:46:30;101307.34;;;24.53;51.99
61710;BME280;47633;51.494;5.386;2022-08-19T02:49:02;101307.34;;;24.53;52.24
61710;BME280;47633;51.494;5.386;2022-08-19T02:51:34;101310.31;;;24.50;52.07
61710;BME280;47633;51.494;5.386;2022-08-19T02:54:00;101318.16;;;24.52;52.21
61710;BME280;47633;51.494;5.386;2022-08-19T02:56:26;101314.94;;;24.48;51.83
61710;BME280;47633;51.494;5.386;2022-08-19T02:58:53;101315.97;;;24.47;51.92
61710;BME280;47633;51.494;5.386;2022-08-19T03:01:21;101306.28;;;24.46;52.18
61710;BME280;47633;51.494;5.386;2022-08-19T03:03:46;101311.31;;;24.49;52.14
61710;BME280;47633;51.494;5.386;2022-08-19T03:06:14;101300.28;;;24.44;52.46
61710;BME280;47633;51.494;5.386;2022-08-19T03:08:42;101297.63;;;24.44;51.99
61710;BME280;47633;51.494;5.386;2022-08-19T03:11:14;101300.28;;;24.44;52.38
61710;BME280;47633;51.494;5.386;2022-08-19T03:13:39;101294.28;;;24.42;52.08
61710;BME280;47633;51.494;5.386;2022-08-19T03:16:05;101315.97;;;24.47;52.15
61710;BME280;47633;51.494;5.386;2022-08-19T03:18:31;101315.97;;;24.47;52.23
61710;BME280;47633;51.494;5.386;2022-08-19T03:20:56;101310.13;;;24.43;51.83
61710;BME280;47633;51.494;5.386;2022-08-19T03:23:22;101306.59;;;24.43;51.84
61710;BME280;47633;51.494;5.386;2022-08-19T03:25:49;101311.75;;;24.44;51.73
61710;BME280;47633;51.494;5.386;2022-08-19T03:28:15;101304.94;;;24.42;52.03
61710;BME280;47633;51.494;5.386;2022-08-19T03:30:42;101300.28;;;24.44;51.76
61710;BME280;47633;51.494;5.386;2022-08-19T03:33:09;101305.09;;;24.40;52.10
61710;BME280;47633;51.494;5.386;2022-08-19T03:35:35;101303.09;;;24.42;52.19
61710;BME280;47633;51.494;5.386;2022-08-19T03:38:04;101301.56;;;24.40;51.71
61710;BME280;47633;51.494;5.386;2022-08-19T03:40:31;101305.09;;;24.40;52.22
61710;BME280;47633;51.494;5.386;2022-08-19T03:42:57;101291.94;;;24.39;51.64
61710;BME280;47633;51.494;5.386;2022-08-19T03:45:23;101292.75;;;24.39;51.69
61710;BME280;47633;51.494;5.386;2022-08-19T03:47:48;101292.75;;;24.39;52.04
61710;BME280;47633;51.494;5.386;2022-08-19T03:50:13;101301.56;;;24.40;52.08
61710;BME280;47633;51.494;5.386;2022-08-19T03:52:39;101293.72;;;24.38;51.57
61710;BME280;47633;51.494;5.386;2022-08-19T03:55:05;101293.72;;;24.38;51.67
61710;BME280;47633;51.494;5.386;2022-08-19T03:57:30;101291.38;;;24.35;51.84
61710;BME280;47633;51.494;5.386;2022-08-19T03:59:55;101293.88;;;24.37;51.97
61710;BME280;47633;51.494;5.386;2022-08-19T04:02:21;101296.41;;;24.38;51.92
61710;BME280;47633;51.494;5.386;2022-08-19T04:04:47;101290.56;;;24.35;51.76
61710;BME280;47633;51.494;5.386;2022-08-19T04:07:13;101296.88;;;24.34;51.54
61710;BME280;47633;51.494;5.386;2022-08-19T04:09:46;101294.91;;;24.36;51.41
61710;BME280;47633;51.494;5.386;2022-08-19T04:12:11;101290.88;;;24.32;51.68
61710;BME280;47633;51.494;5.386;2022-08-19T04:14:36;101295.88;;;24.35;51.42
61710;BME280;47633;51.494;5.386;2022-08-19T04:17:03;101287.06;;;24.34;51.95
61710;BME280;47633;51.494;5.386;2022-08-19T04:19:33;101288.72;;;24.35;51.61
61710;BME280;47633;51.494;5.386;2022-08-19T04:21:59;101295.88;;;24.35;51.49
61710;BME280;47633;51.494;5.386;2022-08-19T04:24:24;101294.50;;;24.31;51.83
61710;BME280;47633;51.494;5.386;2022-08-19T04:26:50;101291.00;;;24.30;51.38
61710;BME280;47633;51.494;5.386;2022-08-19T04:29:23;101290.03;;;24.31;51.78
61710;BME280;47633;51.494;5.386;2022-08-19T04:31:50;101291.84;;;24.31;51.45
61710;BME280;47633;51.494;5.386;2022-08-19T04:34:18;101282.19;;;24.30;51.63
61710;BME280;47633;51.494;5.386;2022-08-19T04:36:44;101264.63;;;24.19;51.66
61710;BME280;47633;51.494;5.386;2022-08-19T04:39:16;101286.34;;;24.32;51.57
61710;BME280;47633;51.494;5.386;2022-08-19T04:41:42;101284.88;;;24.30;51.61
61710;BME280;47633;51.494;5.386;2022-08-19T04:44:27;101282.50;;;24.26;51.48
61710;BME280;47633;51.494;5.386;2022-08-19T04:46:55;101287.69;;;24.28;51.44
61710;BME280;47633;51.494;5.386;2022-08-19T04:49:21;101293.31;;;24.25;51.48
61710;BME280;47633;51.494;5.386;2022-08-19T04:51:47;101298.19;;;24.30;51.74
61710;BME280;47633;51.494;5.386;2022-08-19T04:54:15;101301.81;;;24.29;51.72
61710;BME280;47633;51.494;5.386;2022-08-19T04:56:40;101307.16;;;24.29;51.46
61710;BME280;47633;51.494;5.386;2022-08-19T04:59:06;101306.31;;;24.28;51.53
61710;BME280;47633;51.494;5.386;2022-08-19T05:01:33;101307.59;;;24.24;51.53
61710;BME280;47633;51.494;5.386;2022-08-19T05:04:00;101303.44;;;24.21;51.77
61710;BME280;47633;51.494;5.386;2022-08-19T05:06:26;101312.94;;;24.24;51.36
61710;BME280;47633;51.494;5.386;2022-08-19T05:08:52;101307.75;;;24.22;51.35
61710;BME280;47633;51.494;5.386;2022-08-19T05:11:21;101314.94;;;24.22;51.77
61710;BME280;47633;51.494;5.386;2022-08-19T05:13:47;101319.44;;;24.21;51.74
61710;BME280;47633;51.494;5.386;2022-08-19T05:16:15;101330.75;;;24.23;51.79
61710;BME280;47633;51.494;5.386;2022-08-19T05:18:42;101325.56;;;24.22;51.68
61710;BME280;47633;51.494;5.386;2022-08-19T05:21:27;101329.94;;;24.23;51.59
61710;BME280;47633;51.494;5.386;2022-08-19T05:24:11;101334.25;;;24.24;51.61
61710;BME280;47633;51.494;5.386;2022-08-19T05:26:39;101339.56;;;24.24;51.54
61710;BME280;47633;51.494;5.386;2022-08-19T05:29:05;101341.41;;;24.23;51.31
61710;BME280;47633;51.494;5.386;2022-08-19T05:31:32;101340.88;;;24.20;51.39
61710;BME280;47633;51.494;5.386;2022-08-19T05:33:57;101344.22;;;24.22;51.57
61710;BME280;47633;51.494;5.386;2022-08-19T05:36:28;101355.84;;;24.21;51.71
61710;BME280;47633;51.494;5.386;2022-08-19T05:38:54;101360.19;;;24.22;51.66
61710;BME280;47633;51.494;5.386;2022-08-19T05:41:21;101359.38;;;24.21;51.76
61710;BME280;47633;51.494;5.386;2022-08-19T05:43:52;101359.22;;;24.23;51.88
61710;BME280;47633;51.494;5.386;2022-08-19T05:46:19;101353.59;;;24.26;51.99
61710;BME280;47633;51.494;5.386;2022-08-19T05:48:44;101351.75;;;24.26;51.72
61710;BME280;47633;51.494;5.386;2022-08-19T05:51:10;101358.91;;;24.26;51.90
61710;BME280;47633;51.494;5.386;2022-08-19T05:53:36;101356.41;;;24.24;51.75
61710;BME280;47633;51.494;5.386;2022-08-19T05:56:10;101363.91;;;24.29;51.71
61710;BME280;47633;51.494;5.386;2022-08-19T05:58:37;101360.72;;;24.07;51.85
61710;BME280;47633;51.494;5.386;2022-08-19T06:01:04;101346.97;;;23.94;52.85
61710;BME280;47633;51.494;5.386;2022-08-19T06:03:35;101342.63;;;23.93;53.11
61710;BME280;47633;51.494;5.386;2022-08-19T06:06:02;101341.88;;;24.01;53.34
61710;BME280;47633;51.494;5.386;2022-08-19T06:08:28;101348.03;;;24.01;53.06
61710;BME280;47633;51.494;5.386;2022-08-19T06:10:53;101345.88;;;24.05;53.03
61710;BME280;47633;51.494;5.386;2022-08-19T06:13:19;101330.78;;;24.05;53.37
61710;BME280;47633;51.494;5.386;2022-08-19T06:15:45;101335.22;;;24.05;53.06
61710;BME280;47633;51.494;5.386;2022-08-19T06:18:12;101338.16;;;24.12;53.00
61710;BME280;47633;51.494;5.386;2022-08-19T06:20:37;101335.50;;;24.12;52.72
61710;BME280;47633;51.494;5.386;2022-08-19T06:23:02;101331.59;;;24.06;52.94
61710;BME280;47633;51.494;5.386;2022-08-19T06:25:28;101334.78;;;24.09;53.08
61710;BME280;47633;51.494;5.386;2022-08-19T06:27:53;101339.66;;;24.14;53.25
61710;BME280;47633;51.494;5.386;2022-08-19T06:30:18;101338.38;;;24.18;53.14
61710;BME280;47633;51.494;5.386;2022-08-19T06:32:44;101330.38;;;24.18;53.06
61710;BME280;47633;51.494;5.386;2022-08-19T06:35:09;101335.78;;;24.26;53.29
61710;BME280;47633;51.494;5.386;2022-08-19T06:37:36;101327.47;;;24.30;53.12
61710;BME280;47633;51.494;5.386;2022-08-19T06:40:02;101332.72;;;24.39;53.00
61710;BME280;47633;51.494;5.386;2022-08-19T06:42:28;101327.22;;;24.41;53.19
61710;BME280;47633;51.494;5.386;2022-08-19T06:44:54;101331.88;;;24.39;52.68
61710;BME280;47633;51.494;5.386;2022-08-19T06:47:21;101329.75;;;24.42;53.05
61710;BME280;47633;51.494;5.386;2022-08-19T06:49:46;101341.75;;;24.47;52.82
61710;BME280;47633;51.494;5.386;2022-08-19T06:52:12;101334.44;;;24.49;53.01
61710;BME280;47633;51.494;5.386;2022-08-19T06:54:38;101345.31;;;24.55;53.03
61710;BME280;47633;51.494;5.386;2022-08-19T06:57:05;101335.63;;;24.54;52.78
61710;BME280;47633;51.494;5.386;2022-08-19T06:59:32;101335.38;;;24.57;52.95
61710;BME280;47633;51.494;5.386;2022-08-19T07:02:00;101337.06;;;24.58;52.83
61710;BME280;47633;51.494;5.386;2022-08-19T07:04:28;101347.03;;;24.56;53.10
61710;BME280;47633;51.494;5.386;2022-08-19T07:07:05;101337.31;;;24.55;53.49
61710;BME280;47633;51.494;5.386;2022-08-19T07:09:34;101332.69;;;24.57;53.33
61710;BME280;47633;51.494;5.386;2022-08-19T07:12:03;101326.06;;;24.61;53.42
61710;BME280;47633;51.494;5.386;2022-08-19T07:14:29;101341.13;;;24.71;53.19
61710;BME280;47633;51.494;5.386;2022-08-19T07:16:55;101342.63;;;24.73;53.16
61710;BME280;47633;51.494;5.386;2022-08-19T07:19:23;101345.84;;;24.77;53.46
61710;BME280;47633;51.494;5.386;2022-08-19T07:21:51;101342.84;;;24.80;52.78
61710;BME280;47633;51.494;5.386;2022-08-19T07:24:18;101353.88;;;24.85;53.35
61710;BME280;47633;51.494;5.386;2022-08-19T07:26:44;101355.38;;;24.88;53.71
61710;BME280;47633;51.494;5.386;2022-08-19T07:29:10;101356.91;;;24.90;54.03
61710;BME280;47633;51.494;5.386;2022-08-19T07:31:36;101362.25;;;24.90;54.25
61710;BME280;47633;51.494;5.386;2022-08-19T07:34:09;101360.09;;;24.94;54.16
61710;BME280;47633;51.494;5.386;2022-08-19T07:36:37;101362.97;;;25.01;54.43
61710;BME280;47633;51.494;5.386;2022-08-19T07:39:07;101358.78;;;24.98;54.28
61710;BME280;47633;51.494;5.386;2022-08-19T07:41:34;101359.09;;;24.95;54.11
61710;BME280;47633;51.494;5.386;2022-08-19T07:44:02;101367.63;;;24.98;54.26
61710;BME280;47633;51.494;5.386;2022-08-19T07:46:31;101365.09;;;24.97;53.85
61710;BME280;47633;51.494;5.386;2022-08-19T07:48:57;101378.81;;;25.02;54.29
61710;BME280;47633;51.494;5.386;2022-08-19T07:51:22;101378.94;;;25.01;54.05
61710;BME280;47633;51.494;5.386;2022-08-19T07:53:48;101378.13;;;25.00;54.43
61710;BME280;47633;51.494;5.386;2022-08-19T07:56:16;101389.31;;;25.04;53.87
61710;BME280;47633;51.494;5.386;2022-08-19T07:58:44;101395.34;;;25.06;54.15
61710;BME280;47633;51.494;5.386;2022-08-19T08:01:13;101384.44;;;24.99;54.19
61710;BME280;47633;51.494;5.386;2022-08-19T08:03:39;101390.16;;;25.04;53.93
61710;BME280;47633;51.494;5.386;2022-08-19T08:06:23;101385.47;;;24.98;54.09
61710;BME280;47633;51.494;5.386;2022-08-19T08:09:08;101384.59;;;24.97;54.17
61710;BME280;47633;51.494;5.386;2022-08-19T08:11:39;101394.13;;;25.00;54.34
61710;BME280;47633;51.494;5.386;2022-08-19T08:14:04;101388.44;;;24.95;54.02
61710;BME280;47633;51.494;5.386;2022-08-19T08:16:33;101388.44;;;24.95;54.06
61710;BME280;47633;51.494;5.386;2022-08-19T08:18:59;101390.28;;;24.94;54.01
61710;BME280;47633;51.494;5.386;2022-08-19T08:21:25;101394.59;;;24.95;54.47
61710;BME280;47633;51.494;5.386;2022-08-19T08:23:50;101403.09;;;24.99;54.00
61710;BME280;47633;51.494;5.386;2022-08-19T08:26:17;101405.25;;;24.95;53.65
61710;BME280;47633;51.494;5.386;2022-08-19T08:28:42;101402.91;;;24.92;53.96
61710;BME280;47633;51.494;5.386;2022-08-19T08:31:07;101415.09;;;24.95;53.98
61710;BME280;47633;51.494;5.386;2022-08-19T08:33:33;101418.44;;;24.97;53.85
61710;BME280;47633;51.494;5.386;2022-08-19T08:35:59;101419.59;;;24.94;53.94
61710;BME280;47633;51.494;5.386;2022-08-19T08:38:24;101425.75;;;24.95;54.38
61710;BME280;47633;51.494;5.386;2022-08-19T08:43:53;101423.75;;;24.97;53.74
61710;BME280;47633;51.494;5.386;2022-08-19T08:46:42;101431.16;;;25.03;53.96
61710;BME280;47633;51.494;5.386;2022-08-19T08:51:45;101435.44;;;24.78;54.72
61710;BME280;47633;51.494;5.386;2022-08-19T08:54:14;101430.50;;;24.47;54.73
61710;BME280;47633;51.494;5.386;2022-08-19T08:56:43;101428.31;;;24.24;55.70
61710;BME280;47633;51.494;5.386;2022-08-19T08:59:21;101428.19;;;23.98;56.69
61710;BME280;47633;51.494;5.386;2022-08-19T09:01:48;101423.09;;;23.77;57.07
61710;BME280;47633;51.494;5.386;2022-08-19T09:04:13;101423.72;;;23.61;57.18
61710;BME280;47633;51.494;5.386;2022-08-19T09:07:17;101420.69;;;23.46;57.83
61710;BME280;47633;51.494;5.386;2022-08-19T09:09:38;101428.19;;;23.33;58.73
61710;BME280;47633;51.494;5.386;2022-08-19T09:12:25;101418.41;;;23.24;59.22
61710;BME280;47633;51.494;5.386;2022-08-19T09:15:01;101413.13;;;23.14;59.75
61710;BME280;47633;51.494;5.386;2022-08-19T09:17:28;101423.22;;;23.10;59.38
61710;BME280;47633;51.494;5.386;2022-08-19T09:22:24;101424.44;;;23.06;59.56
61710;BME280;47633;51.494;5.386;2022-08-19T09:24:52;101422.19;;;23.01;60.02
61710;BME280;47633;51.494;5.386;2022-08-19T09:27:22;101440.25;;;22.98;59.46
61710;BME280;47633;51.494;5.386;2022-08-19T09:29:49;101437.06;;;22.94;59.70
61710;BME280;47633;51.494;5.386;2022-08-19T09:32:15;101440.28;;;22.88;60.22
61710;BME280;47633;51.494;5.386;2022-08-19T09:34:42;101421.44;;;22.72;60.78
61710;BME280;47633;51.494;5.386;2022-08-19T09:37:08;101436.63;;;22.79;60.43
61710;BME280;47633;51.494;5.386;2022-08-19T09:39:33;101436.09;;;22.76;60.14
61710;BME280;47633;51.494;5.386;2022-08-19T09:41:59;101433.03;;;22.71;61.00
61710;BME280;47633;51.494;5.386;2022-08-19T09:44:24;101434.84;;;22.70;60.92
61710;BME280;47633;51.494;5.386;2022-08-19T09:46:49;101435.00;;;22.69;60.68
61710;BME280;47633;51.494;5.386;2022-08-19T09:49:17;101435.00;;;22.69;60.61
61710;BME280;47633;51.494;5.386;2022-08-19T09:51:43;101438.19;;;22.72;61.39
61710;BME280;47633;51.494;5.386;2022-08-19T09:54:08;101443.50;;;22.72;61.33
61710;BME280;47633;51.494;5.386;2022-08-19T09:56:33;101436.50;;;22.71;60.61
61710;BME280;47633;51.494;5.386;2022-08-19T09:58:59;101443.66;;;22.71;60.41
61710;BME280;47633;51.494;5.386;2022-08-19T10:01:31;101443.38;;;22.74;60.79
61710;BME280;47633;51.494;5.386;2022-08-19T10:03:58;101423.66;;;22.57;61.22
61710;BME280;47633;51.494;5.386;2022-08-19T10:06:28;101445.47;;;22.70;61.12
61710;BME280;47633;51.494;5.386;2022-08-19T10:08:58;101455.38;;;22.78;61.72
61710;BME280;47633;51.494;5.386;2022-08-19T10:11:24;101447.25;;;22.79;60.67
61710;BME280;47633;51.494;5.386;2022-08-19T10:13:50;101455.25;;;22.89;61.35
61710;BME280;47633;51.494;5.386;2022-08-19T10:16:19;101454.81;;;22.94;61.01
61710;BME280;47633;51.494;5.386;2022-08-19T10:18:46;101444.16;;;22.94;61.48
61710;BME280;47633;51.494;5.386;2022-08-19T10:21:14;101445.56;;;22.98;60.62
61710;BME280;47633;51.494;5.386;2022-08-19T10:23:43;101440.25;;;22.98;60.60
61710;BME280;47633;51.494;5.386;2022-08-19T10:26:26;101434.13;;;22.97;60.63
61710;BME280;47633;51.494;5.386;2022-08-19T10:28:52;101437.47;;;22.99;60.63
61710;BME280;47633;51.494;5.386;2022-08-19T10:31:23;101441.53;;;23.04;60.07
61710;BME280;47633;51.494;5.386;2022-08-19T10:33:50;101445.16;;;23.03;60.54
61710;BME280;47633;51.494;5.386;2022-08-19T10:36:18;101440.53;;;23.05;60.80
61710;BME280;47633;51.494;5.386;2022-08-19T10:38:46;101442.34;;;23.04;60.58
61710;BME280;47633;51.494;5.386;2022-08-19T10:41:14;101438.88;;;23.04;59.80
61710;BME280;47633;51.494;5.386;2022-08-19T10:43:40;101443.03;;;23.06;59.73
61710;BME280;47633;51.494;5.386;2022-08-19T10:46:08;101428.09;;;23.05;61.02
61710;BME280;47633;51.494;5.386;2022-08-19T10:48:34;101437.47;;;23.09;60.72
61710;BME280;47633;51.494;5.386;2022-08-19T10:51:00;101429.91;;;23.14;59.73
61710;BME280;47633;51.494;5.386;2022-08-19T10:53:45;101422.06;;;23.13;60.46
61710;BME280;47633;51.494;5.386;2022-08-19T10:56:10;101414.81;;;23.15;59.72
61710;BME280;47633;51.494;5.386;2022-08-19T10:58:54;101423.03;;;23.22;60.01
61710;BME280;47633;51.494;5.386;2022-08-19T11:01:22;101421.31;;;23.30;59.87
61710;BME280;47633;51.494;5.386;2022-08-19T11:03:47;101427.31;;;23.42;59.27
61710;BME280;47633;51.494;5.386;2022-08-19T11:06:12;101428.25;;;23.51;58.87
61710;BME280;47633;51.494;5.386;2022-08-19T11:08:38;101432.41;;;23.63;59.12
61710;BME280;47633;51.494;5.386;2022-08-19T11:11:05;101425.75;;;23.77;58.49
61710;BME280;47633;51.494;5.386;2022-08-19T11:13:33;101424.47;;;23.81;58.12
61710;BME280;47633;51.494;5.386;2022-08-19T11:16:06;101417.06;;;23.85;58.16
61710;BME280;47633;51.494;5.386;2022-08-19T11:18:40;101417.75;;;23.87;58.36
61710;BME280;47633;51.494;5.386;2022-08-19T11:21:28;101423.97;;;23.96;58.01
61710;BME280;47633;51.494;5.386;2022-08-19T11:23:57;101423.09;;;24.05;58.45
61710;BME280;47633;51.494;5.386;2022-08-19T11:26:24;101425.84;;;24.13;57.79
61710;BME280;47633;51.494;5.386;2022-08-19T11:28:50;101427.81;;;24.29;57.76
61710;BME280;47633;51.494;5.386;2022-08-19T11:31:24;101413.91;;;24.35;57.26
61710;BME280;47633;51.494;5.386;2022-08-19T11:33:50;101410.19;;;24.46;56.95
61710;BME280;47633;51.494;5.386;2022-08-19T11:36:17;101413.50;;;24.58;56.59
61710;BME280;47633;51.494;5.386;2022-08-19T11:38:43;101407.53;;;24.64;56.43
61710;BME280;47633;51.494;5.386;2022-08-19T11:41:09;101406.59;;;24.73;56.29
61710;BME280;47633;51.494;5.386;2022-08-19T11:43:35;101398.66;;;24.81;56.09
61710;BME280;47633;51.494;5.386;2022-08-19T11:46:05;101401.41;;;24.90;55.97
61710;BME280;47633;51.494;5.386;2022-08-19T11:48:32;101397.63;;;25.01;55.51
61710;BME280;47633;51.494;5.386;2022-08-19T11:50:57;101390.69;;;25.08;55.10
61710;BME280;47633;51.494;5.386;2022-08-19T11:53:23;101404.41;;;25.21;55.08
61710;BME280;47633;51.494;5.386;2022-08-19T11:55:49;101408.00;;;25.30;54.69
61710;BME280;47633;51.494;5.386;2022-08-19T11:58:16;101413.84;;;25.33;54.83
61710;BME280;47633;51.494;5.386;2022-08-19T12:00:43;101405.69;;;25.35;54.43
61710;BME280;47633;51.494;5.386;2022-08-19T12:03:11;101409.41;;;25.42;54.13
61710;BME280;47633;51.494;5.386;2022-08-19T12:05:38;101411.59;;;25.47;54.12
61710;BME280;47633;51.494;5.386;2022-08-19T12:08:05;101415.91;;;25.48;54.16
61710;BME280;47633;51.494;5.386;2022-08-19T12:10:31;101420.09;;;25.50;53.97
61710;BME280;47633;51.494;5.386;2022-08-19T12:12:56;101414.28;;;25.55;53.71
61710;BME280;47633;51.494;5.386;2022-08-19T12:15:21;101418.63;;;25.56;54.07
61710;BME280;47633;51.494;5.386;2022-08-19T12:17:47;101415.47;;;25.61;53.89
61710;BME280;47633;51.494;5.386;2022-08-19T12:20:13;101411.97;;;25.60;54.01
61710;BME280;47633;51.494;5.386;2022-08-19T12:22:41;101409.94;;;25.54;53.54
61710;BME280;47633;51.494;5.386;2022-08-19T12:25:09;101417.94;;;25.54;53.86
61710;BME280;47633;51.494;5.386;2022-08-19T12:27:35;101403.31;;;25.58;53.80
61710;BME280;47633;51.494;5.386;2022-08-19T12:30:03;101406.81;;;25.67;53.80
61710;BME280;47633;51.494;5.386;2022-08-19T12:32:29;101409.00;;;25.71;53.36
61710;BME280;47633;51.494;5.386;2022-08-19T12:34:54;101402.38;;;25.76;53.30
61710;BME280;47633;51.494;5.386;2022-08-19T12:37:19;101394.03;;;25.79;53.46
61710;BME280;47633;51.494;5.386;2022-08-19T12:39:45;101400.69;;;25.83;53.26
61710;BME280;47633;51.494;5.386;2022-08-19T12:42:12;101399.72;;;25.84;52.84
61710;BME280;47633;51.494;5.386;2022-08-19T12:44:39;101392.84;;;25.81;53.08
61710;BME280;47633;51.494;5.386;2022-08-19T12:47:05;101401.03;;;25.80;53.47
61710;BME280;47633;51.494;5.386;2022-08-19T12:49:32;101402.88;;;25.79;53.56
61710;BME280;47633;51.494;5.386;2022-08-19T12:52:00;101395.34;;;25.75;53.80
61710;BME280;47633;51.494;5.386;2022-08-19T12:54:26;101393.47;;;25.67;53.07
61710;BME280;47633;51.494;5.386;2022-08-19T12:56:51;101396.97;;;25.67;53.02
61710;BME280;47633;51.494;5.386;2022-08-19T12:59:17;101392.16;;;25.63;53.28
61710;BME280;47633;51.494;5.386;2022-08-19T13:01:44;101382.78;;;25.59;53.63